CW6301 Weather Reports


time (UTC)temp
C
wind
direction
speed
KPH
gust
KPH
rain 1hr
cm
rain 24hr
cm
rain mn
cm
humidity
%
barometer
mb
20260503184505 17 127 6.4 19.3 0.00 0.00 0.00 52 1005.0
20260503183043 17 135 8.0 17.7 0.00 0.00 0.00 53 1005.3
20260503181505 17 136 3.2 12.9 0.00 0.00 0.00 54 1005.3
20260503180036 17 113 6.4 14.5 0.00 0.00 0.00 54 1005.7
20260503174551 16 132 8.0 19.3 0.00 0.00 0.00 57 1006.0
20260503173025 16 112 6.4 17.7 0.00 0.00 0.00 58 1006.1
20260503171557 16 129 4.8 20.9 0.00 0.00 0.00 63 1006.5
20260503160114 11 120 4.8 11.3 0.00 0.00 0.00 74 1007.9
20260503150111 14 108 6.4 19.3 0.00 0.00 0.00 64 1008.2
20260503110111 8 134 1.6 9.7 0.00 0.00 0.00 64 1009.4
20260503100111 8 124 3.2 9.7 0.00 0.00 0.00 62 1010.0
20260503090105 8 131 3.2 8.0 0.00 0.00 0.00 59 1010.3
20260503081512 9 133 3.2 11.3 0.00 0.00 0.00 57 1010.8
20260503071604 8 127 1.6 8.0 0.00 0.00 0.00 60 1011.2
20260503060124 7 124 0.0 1.6 0.00 0.00 0.00 67 1011.9
20260503054536 6 127 0.0 1.6 0.00 0.00 0.00 68 1012.1
20260503053059 6 128 0.0 1.6 0.00 0.00 0.00 68 1012.1
20260503051529 6 126 0.0 1.6 0.00 0.00 0.00 68 1012.2
20260503050101 6 126 0.0 1.6 0.00 0.00 0.00 68 1012.3
20260503044515 6 126 0.0 1.6 0.00 0.00 0.00 67 1012.5
20260503043045 6 126 0.0 1.6 0.00 0.00 0.00 67 1012.6
20260503041514 6 127 0.0 0.0 0.00 0.00 0.00 67 1012.7
20260503040049 6 127 0.0 1.6 0.00 0.00 0.00 67 1012.7
20260503034501 6 127 0.0 1.6 0.00 0.00 0.00 66 1012.8
20260503033038 7 127 0.0 1.6 0.00 0.00 0.00 64 1013.0
20260503031502 7 127 0.0 1.6 0.00 0.00 0.00 63 1013.1
20260503030019 7 129 0.0 1.6 0.00 0.00 0.00 63 1013.3
20260503024551 7 127 0.0 1.6 0.00 0.00 0.00 62 1013.3
20260503023021 7 128 0.0 1.6 0.00 0.00 0.00 61 1013.3
20260503021555 8 128 0.0 1.6 0.00 0.00 0.00 60 1013.4
20260503020007 8 128 0.0 1.6 0.00 0.00 0.00 60 1013.3
20260503014541 8 128 0.0 1.6 0.00 0.00 0.00 60 1013.2
20260503013009 9 129 0.0 1.6 0.00 0.00 0.00 57 1013.1
20260503011544 10 128 0.0 1.6 0.00 0.00 0.00 55 1013.2
20260503010124 10 129 0.0 1.6 0.00 0.00 0.00 53 1013.2
20260503004528 11 127 0.0 1.6 0.00 0.00 0.00 51 1013.2
20260503003107 12 122 0.0 4.8 0.00 0.00 0.00 50 1013.3
20260503001530 12 127 1.6 8.0 0.00 0.00 0.00 48 1013.4
20260503000108 12 129 0.0 9.7 0.00 0.00 0.00 46 1013.5
20260502234517 13 120 3.2 11.3 0.00 0.00 0.00 44 1013.5
20260502233048 13 108 1.6 8.0 0.00 0.00 0.00 44 1013.6
20260502231520 13 128 3.2 8.0 0.00 0.00 0.00 45 1013.8
20260502230051 13 143 0.0 8.0 0.00 0.00 0.00 45 1013.8
20260502224505 13 132 1.6 4.8 0.00 0.00 0.00 43 1014.0
20260502223043 13 124 1.6 6.4 0.00 0.00 0.00 44 1014.2
20260502221508 13 127 0.0 8.0 0.00 0.00 0.00 43 1014.3
20260502220040 13 173 0.0 4.8 0.00 0.00 0.00 44 1014.4
20260502214624 13 170 1.6 4.8 0.00 0.00 0.00 44 1014.6
20260502213034 13 129 3.2 8.0 0.00 0.00 0.00 44 1014.7
20260502211608 13 118 3.2 11.3 0.00 0.00 0.00 45 1014.9
20260502210051 13 132 0.0 4.8 0.00 0.00 0.00 45 1014.9
20260502204559 13 91 1.6 8.0 0.00 0.00 0.00 45 1015.2
20260502203028 14 127 1.6 12.9 0.00 0.00 0.00 47 1015.4
20260502201621 13 142 0.0 6.4 0.00 0.00 0.00 43 1015.7
20260502200015 13 173 3.2 8.0 0.00 0.00 0.00 44 1016.1
20260502194550 13 134 1.6 6.4 0.00 0.00 0.00 49 1016.3
20260502193017 14 170 3.2 9.7 0.00 0.00 0.00 44 1016.6
20260502191550 13 138 1.6 8.0 0.00 0.00 0.00 47 1016.8